Westfield River @ Westfield, Ma

Westfield River at Westfield
 Total Drainage Area: 497 sq. miles 
 Drainage Area Controlled by Corps Dams: 214 sq. miles (43%) 
 Warning Flow/Stage: 4,000 cfs / 8.0 feet 
 Flood Flow/Stage: 11,700 cfs / 13.0 feet 
Date Time
(Eastern)
Stage
(ft)
Flow
(cfs)
CSM
(cfs / sq. mi.)
Jun-25 12:30 am 4.27 502 1.0
Jun-24 11:30 pm 4.29 512 1.0
Jun-24 10:30 pm 4.30 517 1.0
Jun-24 09:30 pm 4.33 533 1.1
Jun-24 08:30 pm 4.36 550 1.1
Jun-24 07:30 pm 4.39 566 1.1
Jun-24 06:30 pm 4.44 594 1.2
Jun-24 05:30 pm 4.48 617 1.2
Jun-24 04:30 pm 4.51 634 1.3
Jun-24 03:30 pm 4.51 634 1.3
Jun-24 02:30 pm 4.51 634 1.3
Jun-24 01:30 pm 4.56 664 1.3
Jun-24 12:30 pm 4.55 658 1.3
Jun-24 11:30 am 4.55 658 1.3
Jun-24 10:30 am 4.57 670 1.4
Jun-24 09:30 am 4.59 682 1.4
Jun-24 08:30 am 4.62 700 1.4
Jun-24 07:30 am 4.64 712 1.4
Jun-24 06:30 am 4.68 737 1.5
Jun-24 05:30 am 4.72 762 1.5
Jun-24 04:30 am 4.73 769 1.6
Jun-24 03:30 am 4.70 750 1.5
Jun-24 02:30 am 4.71 756 1.5
Jun-24 01:30 am 4.73 769 1.6
Jun-24 12:30 am 4.76 788 1.6
Report Generated June 25, 2024 01:00 am